Vf. Omu, Romania
Current Conditions -  °F | °C
As of 11:00 PM on Sunday 21 Dec 2014 (Local Time) from LRSB Reporting Station
Few Clouds Few Clouds  
Wind Chill: 27°   Ceiling: Unl
Heat Index: 36°   Visibility: 6mi
Dew Point: 27°   Wind: 14mph
Humidity: 70%   Direction: 280°W
Pressure: 30.27"   Gusts: NA
Location:  45.45°N, 25.45°E
Report Text: LRSB 212000Z 28012KT 9999 FEW060 02/M03 Q1025 R27/CLRD//
Loading
Personal Weather Stations






























Interactive Weather Map New forecast layout! Learn more

10-Day Weather Forecast

Advertisements
Track Severe Weather on mobile